sensor_id;sensor_type;location;lat;lon;timestamp;temperature;humidity
29687;DHT22;16599;47.078;15.536;2023-04-28T00:01:40;7.70;95.40
29687;DHT22;16599;47.078;15.536;2023-04-28T00:04:07;8.10;95.10
29687;DHT22;16599;47.078;15.536;2023-04-28T00:06:35;8.20;95.20
29687;DHT22;16599;47.078;15.536;2023-04-28T00:09:02;8.10;95.00
29687;DHT22;16599;47.078;15.536;2023-04-28T00:11:29;8.10;95.40
29687;DHT22;16599;47.078;15.536;2023-04-28T00:13:56;8.20;95.70
29687;DHT22;16599;47.078;15.536;2023-04-28T00:16:23;8.30;96.20
29687;DHT22;16599;47.078;15.536;2023-04-28T00:18:50;8.20;96.40
29687;DHT22;16599;47.078;15.536;2023-04-28T00:21:17;8.10;95.70
29687;DHT22;16599;47.078;15.536;2023-04-28T00:23:44;8.20;94.10
29687;DHT22;16599;47.078;15.536;2023-04-28T00:26:11;8.30;94.00
29687;DHT22;16599;47.078;15.536;2023-04-28T00:28:38;8.20;95.50
29687;DHT22;16599;47.078;15.536;2023-04-28T00:31:12;8.10;96.10
29687;DHT22;16599;47.078;15.536;2023-04-28T00:33:40;8.00;96.80
29687;DHT22;16599;47.078;15.536;2023-04-28T00:36:07;8.00;96.80
29687;DHT22;16599;47.078;15.536;2023-04-28T00:38:34;8.00;96.50
29687;DHT22;16599;47.078;15.536;2023-04-28T00:41:01;7.90;96.80
29687;DHT22;16599;47.078;15.536;2023-04-28T00:43:28;7.90;96.50
29687;DHT22;16599;47.078;15.536;2023-04-28T00:45:55;8.00;95.90
29687;DHT22;16599;47.078;15.536;2023-04-28T00:48:22;7.90;95.60
29687;DHT22;16599;47.078;15.536;2023-04-28T00:50:50;7.90;95.60
29687;DHT22;16599;47.078;15.536;2023-04-28T00:53:17;7.30;96.00
29687;DHT22;16599;47.078;15.536;2023-04-28T00:55:45;7.10;96.70
29687;DHT22;16599;47.078;15.536;2023-04-28T00:58:12;7.00;95.80
29687;DHT22;16599;47.078;15.536;2023-04-28T01:00:39;6.80;95.80
29687;DHT22;16599;47.078;15.536;2023-04-28T01:03:06;6.80;96.50
29687;DHT22;16599;47.078;15.536;2023-04-28T01:05:34;6.70;96.20
29687;DHT22;16599;47.078;15.536;2023-04-28T01:08:02;6.80;96.20
29687;DHT22;16599;47.078;15.536;2023-04-28T01:10:28;6.40;96.10
29687;DHT22;16599;47.078;15.536;2023-04-28T01:12:55;6.30;97.00
29687;DHT22;16599;47.078;15.536;2023-04-28T01:15:22;6.30;97.00
29687;DHT22;16599;47.078;15.536;2023-04-28T01:17:49;6.50;96.90
29687;DHT22;16599;47.078;15.536;2023-04-28T01:20:16;6.50;96.60
29687;DHT22;16599;47.078;15.536;2023-04-28T01:22:43;6.50;97.20
29687;DHT22;16599;47.078;15.536;2023-04-28T01:25:10;6.60;97.30
29687;DHT22;16599;47.078;15.536;2023-04-28T01:27:37;6.60;96.80
29687;DHT22;16599;47.078;15.536;2023-04-28T01:30:04;6.30;96.90
29687;DHT22;16599;47.078;15.536;2023-04-28T01:32:32;6.20;97.70
29687;DHT22;16599;47.078;15.536;2023-04-28T01:34:59;6.40;97.60
29687;DHT22;16599;47.078;15.536;2023-04-28T01:37:26;6.20;97.20
29687;DHT22;16599;47.078;15.536;2023-04-28T01:39:52;6.20;97.60
29687;DHT22;16599;47.078;15.536;2023-04-28T01:42:19;6.20;98.10
29687;DHT22;16599;47.078;15.536;2023-04-28T01:44:46;6.10;97.60
29687;DHT22;16599;47.078;15.536;2023-04-28T01:47:13;6.30;97.90
29687;DHT22;16599;47.078;15.536;2023-04-28T01:49:40;5.90;97.80
29687;DHT22;16599;47.078;15.536;2023-04-28T01:52:07;5.90;98.50
29687;DHT22;16599;47.078;15.536;2023-04-28T01:54:33;6.00;98.40
29687;DHT22;16599;47.078;15.536;2023-04-28T01:57:00;5.70;98.30
29687;DHT22;16599;47.078;15.536;2023-04-28T01:59:28;5.70;98.60
29687;DHT22;16599;47.078;15.536;2023-04-28T02:01:55;5.60;98.80
29687;DHT22;16599;47.078;15.536;2023-04-28T02:04:22;5.50;98.80
29687;DHT22;16599;47.078;15.536;2023-04-28T02:06:49;5.50;99.30
29687;DHT22;16599;47.078;15.536;2023-04-28T02:09:16;5.50;99.50
29687;DHT22;16599;47.078;15.536;2023-04-28T02:11:43;5.60;99.70
29687;DHT22;16599;47.078;15.536;2023-04-28T02:14:10;5.70;99.50
29687;DHT22;16599;47.078;15.536;2023-04-28T02:16:36;5.80;99.30
29687;DHT22;16599;47.078;15.536;2023-04-28T02:19:03;5.90;99.20
29687;DHT22;16599;47.078;15.536;2023-04-28T02:21:30;5.70;99.40
29687;DHT22;16599;47.078;15.536;2023-04-28T02:23:57;5.80;99.70
29687;DHT22;16599;47.078;15.536;2023-04-28T02:26:24;6.00;99.70
29687;DHT22;16599;47.078;15.536;2023-04-28T02:28:51;5.90;99.20
29687;DHT22;16599;47.078;15.536;2023-04-28T02:31:18;5.80;99.00
29687;DHT22;16599;47.078;15.536;2023-04-28T02:33:45;5.80;99.30
29687;DHT22;16599;47.078;15.536;2023-04-28T02:36:12;5.90;99.30
29687;DHT22;16599;47.078;15.536;2023-04-28T02:38:39;5.80;99.10
29687;DHT22;16599;47.078;15.536;2023-04-28T02:41:07;5.60;99.60
29687;DHT22;16599;47.078;15.536;2023-04-28T02:43:35;5.30;99.90
29687;DHT22;16599;47.078;15.536;2023-04-28T02:46:03;5.40;99.90
29687;DHT22;16599;47.078;15.536;2023-04-28T02:48:30;5.40;99.90
29687;DHT22;16599;47.078;15.536;2023-04-28T02:50:57;5.40;99.90
29687;DHT22;16599;47.078;15.536;2023-04-28T02:53:24;5.30;99.90
29687;DHT22;16599;47.078;15.536;2023-04-28T02:55:51;5.30;99.90
29687;DHT22;16599;47.078;15.536;2023-04-28T02:58:18;5.40;99.90
29687;DHT22;16599;47.078;15.536;2023-04-28T03:00:45;5.40;99.90
29687;DHT22;16599;47.078;15.536;2023-04-28T03:03:12;5.40;99.90
29687;DHT22;16599;47.078;15.536;2023-04-28T03:05:39;5.30;99.90
29687;DHT22;16599;47.078;15.536;2023-04-28T03:08:06;5.30;99.90
29687;DHT22;16599;47.078;15.536;2023-04-28T03:10:33;5.00;99.80
29687;DHT22;16599;47.078;15.536;2023-04-28T03:13:00;5.00;99.90
29687;DHT22;16599;47.078;15.536;2023-04-28T03:15:27;5.10;99.90
29687;DHT22;16599;47.078;15.536;2023-04-28T03:17:53;5.10;99.90
29687;DHT22;16599;47.078;15.536;2023-04-28T03:20:20;5.10;99.90
29687;DHT22;16599;47.078;15.536;2023-04-28T03:22:47;5.00;99.90
29687;DHT22;16599;47.078;15.536;2023-04-28T03:25:14;5.10;99.90
29687;DHT22;16599;47.078;15.536;2023-04-28T03:27:41;5.20;99.90
29687;DHT22;16599;47.078;15.536;2023-04-28T03:30:08;4.90;99.90
29687;DHT22;16599;47.078;15.536;2023-04-28T03:32:35;4.90;99.90
29687;DHT22;16599;47.078;15.536;2023-04-28T03:35:03;5.00;99.90
29687;DHT22;16599;47.078;15.536;2023-04-28T03:37:30;5.00;99.90
29687;DHT22;16599;47.078;15.536;2023-04-28T03:39:57;5.10;99.90
29687;DHT22;16599;47.078;15.536;2023-04-28T03:42:24;5.20;99.90
29687;DHT22;16599;47.078;15.536;2023-04-28T03:44:51;5.10;99.90
29687;DHT22;16599;47.078;15.536;2023-04-28T03:47:17;5.20;99.90
29687;DHT22;16599;47.078;15.536;2023-04-28T03:49:44;5.20;99.90
29687;DHT22;16599;47.078;15.536;2023-04-28T03:52:11;5.20;99.90
29687;DHT22;16599;47.078;15.536;2023-04-28T03:54:38;5.10;99.90
29687;DHT22;16599;47.078;15.536;2023-04-28T03:57:05;5.00;99.90
29687;DHT22;16599;47.078;15.536;2023-04-28T03:59:32;5.00;99.90
29687;DHT22;16599;47.078;15.536;2023-04-28T04:01:58;5.00;99.90
29687;DHT22;16599;47.078;15.536;2023-04-28T04:04:25;4.90;99.90
29687;DHT22;16599;47.078;15.536;2023-04-28T04:06:53;4.90;99.90
29687;DHT22;16599;47.078;15.536;2023-04-28T04:09:20;5.00;99.90
29687;DHT22;16599;47.078;15.536;2023-04-28T04:11:47;5.00;99.90
29687;DHT22;16599;47.078;15.536;2023-04-28T04:14:13;5.00;99.90
29687;DHT22;16599;47.078;15.536;2023-04-28T04:16:41;5.10;99.90
29687;DHT22;16599;47.078;15.536;2023-04-28T04:19:07;5.00;99.90
29687;DHT22;16599;47.078;15.536;2023-04-28T04:21:34;4.80;99.90
29687;DHT22;16599;47.078;15.536;2023-04-28T04:24:01;4.70;99.90
29687;DHT22;16599;47.078;15.536;2023-04-28T04:26:28;5.00;99.90
29687;DHT22;16599;47.078;15.536;2023-04-28T04:28:55;5.30;99.90
29687;DHT22;16599;47.078;15.536;2023-04-28T04:31:22;5.40;99.90
29687;DHT22;16599;47.078;15.536;2023-04-28T04:33:49;5.50;99.90
29687;DHT22;16599;47.078;15.536;2023-04-28T04:36:15;5.40;99.90
29687;DHT22;16599;47.078;15.536;2023-04-28T04:38:42;5.60;99.90
29687;DHT22;16599;47.078;15.536;2023-04-28T04:41:09;5.60;99.90
29687;DHT22;16599;47.078;15.536;2023-04-28T04:43:36;5.40;99.90
29687;DHT22;16599;47.078;15.536;2023-04-28T04:46:03;5.60;99.90
29687;DHT22;16599;47.078;15.536;2023-04-28T04:48:30;5.60;99.90
29687;DHT22;16599;47.078;15.536;2023-04-28T04:50:57;5.70;99.90
29687;DHT22;16599;47.078;15.536;2023-04-28T04:53:23;5.70;99.90
29687;DHT22;16599;47.078;15.536;2023-04-28T04:55:50;5.80;99.90
29687;DHT22;16599;47.078;15.536;2023-04-28T04:58:17;5.90;99.90
29687;DHT22;16599;47.078;15.536;2023-04-28T05:00:44;6.10;99.90
29687;DHT22;16599;47.078;15.536;2023-04-28T05:03:11;6.20;99.90
29687;DHT22;16599;47.078;15.536;2023-04-28T05:05:39;6.30;99.90
29687;DHT22;16599;47.078;15.536;2023-04-28T05:08:06;6.30;99.90
29687;DHT22;16599;47.078;15.536;2023-04-28T05:10:32;6.40;99.90
29687;DHT22;16599;47.078;15.536;2023-04-28T05:12:59;6.50;99.90
29687;DHT22;16599;47.078;15.536;2023-04-28T05:15:26;6.60;99.90
29687;DHT22;16599;47.078;15.536;2023-04-28T05:17:53;6.70;99.90
29687;DHT22;16599;47.078;15.536;2023-04-28T05:20:20;6.70;99.90
29687;DHT22;16599;47.078;15.536;2023-04-28T05:22:47;6.70;99.90
29687;DHT22;16599;47.078;15.536;2023-04-28T05:25:14;6.80;99.90
29687;DHT22;16599;47.078;15.536;2023-04-28T05:27:41;6.90;99.90
29687;DHT22;16599;47.078;15.536;2023-04-28T05:30:09;7.00;99.90
29687;DHT22;16599;47.078;15.536;2023-04-28T05:32:36;7.10;99.90
29687;DHT22;16599;47.078;15.536;2023-04-28T05:35:04;7.10;99.90
29687;DHT22;16599;47.078;15.536;2023-04-28T05:37:31;7.10;99.90
29687;DHT22;16599;47.078;15.536;2023-04-28T05:39:58;7.10;99.90
29687;DHT22;16599;47.078;15.536;2023-04-28T05:42:25;7.20;99.90
29687;DHT22;16599;47.078;15.536;2023-04-28T05:44:51;7.30;99.90
29687;DHT22;16599;47.078;15.536;2023-04-28T05:47:18;7.50;99.90
29687;DHT22;16599;47.078;15.536;2023-04-28T05:49:45;7.60;99.90
29687;DHT22;16599;47.078;15.536;2023-04-28T05:52:12;7.70;99.90
29687;DHT22;16599;47.078;15.536;2023-04-28T05:54:39;7.80;99.90
29687;DHT22;16599;47.078;15.536;2023-04-28T05:57:06;8.00;99.90
29687;DHT22;16599;47.078;15.536;2023-04-28T05:59:33;8.10;99.10
29687;DHT22;16599;47.078;15.536;2023-04-28T06:01:59;8.40;97.50
29687;DHT22;16599;47.078;15.536;2023-04-28T06:04:26;8.50;95.20
29687;DHT22;16599;47.078;15.536;2023-04-28T06:06:54;8.50;94.30
29687;DHT22;16599;47.078;15.536;2023-04-28T06:09:22;8.60;92.80
29687;DHT22;16599;47.078;15.536;2023-04-28T06:11:49;8.70;93.10
29687;DHT22;16599;47.078;15.536;2023-04-28T06:14:16;8.80;92.60
29687;DHT22;16599;47.078;15.536;2023-04-28T06:16:43;8.80;92.90
29687;DHT22;16599;47.078;15.536;2023-04-28T06:19:10;8.80;92.40
29687;DHT22;16599;47.078;15.536;2023-04-28T06:21:37;8.90;91.70
29687;DHT22;16599;47.078;15.536;2023-04-28T06:24:04;9.00;91.60
29687;DHT22;16599;47.078;15.536;2023-04-28T06:26:31;9.00;91.10
29687;DHT22;16599;47.078;15.536;2023-04-28T06:28:57;9.00;91.30
29687;DHT22;16599;47.078;15.536;2023-04-28T06:31:24;9.00;91.10
29687;DHT22;16599;47.078;15.536;2023-04-28T06:33:51;9.00;91.70
29687;DHT22;16599;47.078;15.536;2023-04-28T06:36:18;9.10;90.40
29687;DHT22;16599;47.078;15.536;2023-04-28T06:38:45;9.10;90.90
29687;DHT22;16599;47.078;15.536;2023-04-28T06:41:12;9.20;90.70
29687;DHT22;16599;47.078;15.536;2023-04-28T06:43:39;9.30;90.30
29687;DHT22;16599;47.078;15.536;2023-04-28T06:46:06;9.30;90.70
29687;DHT22;16599;47.078;15.536;2023-04-28T06:48:34;9.40;90.70
29687;DHT22;16599;47.078;15.536;2023-04-28T06:51:01;9.40;90.50
29687;DHT22;16599;47.078;15.536;2023-04-28T06:53:28;9.60;90.10
29687;DHT22;16599;47.078;15.536;2023-04-28T06:55:55;9.70;91.30
29687;DHT22;16599;47.078;15.536;2023-04-28T06:58:22;9.90;88.50
29687;DHT22;16599;47.078;15.536;2023-04-28T07:00:49;10.00;88.60
29687;DHT22;16599;47.078;15.536;2023-04-28T07:03:17;10.10;87.00
29687;DHT22;16599;47.078;15.536;2023-04-28T07:05:44;10.00;86.60
29687;DHT22;16599;47.078;15.536;2023-04-28T07:08:11;10.10;87.30
29687;DHT22;16599;47.078;15.536;2023-04-28T07:10:39;10.30;88.90
29687;DHT22;16599;47.078;15.536;2023-04-28T07:13:06;10.30;88.50
29687;DHT22;16599;47.078;15.536;2023-04-28T07:15:33;10.30;86.50
29687;DHT22;16599;47.078;15.536;2023-04-28T07:18:00;10.30;86.80
29687;DHT22;16599;47.078;15.536;2023-04-28T07:20:27;10.20;87.80
29687;DHT22;16599;47.078;15.536;2023-04-28T07:22:54;10.10;86.20
29687;DHT22;16599;47.078;15.536;2023-04-28T07:25:21;10.10;84.70
29687;DHT22;16599;47.078;15.536;2023-04-28T07:27:48;10.20;84.60
29687;DHT22;16599;47.078;15.536;2023-04-28T07:30:15;10.20;84.70
29687;DHT22;16599;47.078;15.536;2023-04-28T07:32:53;10.40;85.10
29687;DHT22;16599;47.078;15.536;2023-04-28T07:35:21;10.40;85.50
29687;DHT22;16599;47.078;15.536;2023-04-28T07:37:48;10.50;84.80
29687;DHT22;16599;47.078;15.536;2023-04-28T07:40:15;10.60;85.40
29687;DHT22;16599;47.078;15.536;2023-04-28T07:42:42;10.70;85.40
29687;DHT22;16599;47.078;15.536;2023-04-28T07:45:10;10.70;85.40
29687;DHT22;16599;47.078;15.536;2023-04-28T07:47:37;10.70;86.10
29687;DHT22;16599;47.078;15.536;2023-04-28T07:50:04;10.70;84.90
29687;DHT22;16599;47.078;15.536;2023-04-28T07:52:32;10.60;85.30
29687;DHT22;16599;47.078;15.536;2023-04-28T07:54:59;10.50;84.30
29687;DHT22;16599;47.078;15.536;2023-04-28T07:57:26;10.60;84.80
29687;DHT22;16599;47.078;15.536;2023-04-28T07:59:55;10.70;85.60
29687;DHT22;16599;47.078;15.536;2023-04-28T08:02:22;10.70;84.40
29687;DHT22;16599;47.078;15.536;2023-04-28T08:04:49;10.70;85.50
29687;DHT22;16599;47.078;15.536;2023-04-28T08:07:16;10.70;84.30
29687;DHT22;16599;47.078;15.536;2023-04-28T08:09:43;10.70;85.20
29687;DHT22;16599;47.078;15.536;2023-04-28T08:12:16;10.80;85.80
29687;DHT22;16599;47.078;15.536;2023-04-28T08:14:43;10.80;83.20
29687;DHT22;16599;47.078;15.536;2023-04-28T08:17:10;10.70;84.90
29687;DHT22;16599;47.078;15.536;2023-04-28T08:19:37;10.80;86.00
29687;DHT22;16599;47.078;15.536;2023-04-28T08:22:04;10.60;86.20
29687;DHT22;16599;47.078;15.536;2023-04-28T08:24:32;10.60;86.00
29687;DHT22;16599;47.078;15.536;2023-04-28T08:27:01;10.60;86.00
29687;DHT22;16599;47.078;15.536;2023-04-28T08:29:31;10.70;85.70
29687;DHT22;16599;47.078;15.536;2023-04-28T08:31:58;10.70;85.20
29687;DHT22;16599;47.078;15.536;2023-04-28T08:34:27;10.80;85.20
29687;DHT22;16599;47.078;15.536;2023-04-28T08:36:54;10.80;85.80
29687;DHT22;16599;47.078;15.536;2023-04-28T08:39:21;10.80;84.80
29687;DHT22;16599;47.078;15.536;2023-04-28T08:41:49;10.60;85.20
29687;DHT22;16599;47.078;15.536;2023-04-28T08:44:17;10.70;85.90
29687;DHT22;16599;47.078;15.536;2023-04-28T08:46:45;10.70;87.10
29687;DHT22;16599;47.078;15.536;2023-04-28T08:49:17;10.70;86.60
29687;DHT22;16599;47.078;15.536;2023-04-28T08:51:49;10.80;87.40
29687;DHT22;16599;47.078;15.536;2023-04-28T08:54:16;10.80;87.10
29687;DHT22;16599;47.078;15.536;2023-04-28T08:56:55;10.90;86.80
29687;DHT22;16599;47.078;15.536;2023-04-28T08:59:22;10.80;88.10
29687;DHT22;16599;47.078;15.536;2023-04-28T09:01:50;10.70;88.30
29687;DHT22;16599;47.078;15.536;2023-04-28T09:04:18;10.60;87.30
29687;DHT22;16599;47.078;15.536;2023-04-28T09:06:46;10.60;87.00
29687;DHT22;16599;47.078;15.536;2023-04-28T09:11:53;10.60;90.20
29687;DHT22;16599;47.078;15.536;2023-04-28T09:14:26;10.60;88.50
29687;DHT22;16599;47.078;15.536;2023-04-28T09:16:53;10.60;90.20
29687;DHT22;16599;47.078;15.536;2023-04-28T09:19:20;10.60;90.10
29687;DHT22;16599;47.078;15.536;2023-04-28T09:21:52;10.70;89.10
29687;DHT22;16599;47.078;15.536;2023-04-28T09:24:30;10.80;90.50
29687;DHT22;16599;47.078;15.536;2023-04-28T09:27:07;10.90;91.40
29687;DHT22;16599;47.078;15.536;2023-04-28T09:29:37;10.80;89.80
29687;DHT22;16599;47.078;15.536;2023-04-28T09:32:20;10.80;91.20
29687;DHT22;16599;47.078;15.536;2023-04-28T09:34:52;10.90;92.20
29687;DHT22;16599;47.078;15.536;2023-04-28T09:37:21;11.10;91.80
29687;DHT22;16599;47.078;15.536;2023-04-28T09:39:50;11.10;90.50
29687;DHT22;16599;47.078;15.536;2023-04-28T09:42:37;11.20;90.50
29687;DHT22;16599;47.078;15.536;2023-04-28T09:45:06;11.20;90.30
29687;DHT22;16599;47.078;15.536;2023-04-28T09:47:38;11.30;88.70
29687;DHT22;16599;47.078;15.536;2023-04-28T09:50:10;11.20;87.50
29687;DHT22;16599;47.078;15.536;2023-04-28T09:52:41;11.10;89.20
29687;DHT22;16599;47.078;15.536;2023-04-28T09:55:10;11.30;90.30
29687;DHT22;16599;47.078;15.536;2023-04-28T09:57:38;11.40;90.30
29687;DHT22;16599;47.078;15.536;2023-04-28T10:00:06;11.40;89.90
29687;DHT22;16599;47.078;15.536;2023-04-28T10:02:36;11.20;90.40
29687;DHT22;16599;47.078;15.536;2023-04-28T10:05:07;11.20;90.20
29687;DHT22;16599;47.078;15.536;2023-04-28T10:07:36;11.20;90.10
29687;DHT22;16599;47.078;15.536;2023-04-28T10:10:06;11.10;90.20
29687;DHT22;16599;47.078;15.536;2023-04-28T10:12:33;11.10;90.40
29687;DHT22;16599;47.078;15.536;2023-04-28T10:15:04;11.10;90.30
29687;DHT22;16599;47.078;15.536;2023-04-28T10:17:32;11.20;90.20
29687;DHT22;16599;47.078;15.536;2023-04-28T10:20:00;11.20;89.90
29687;DHT22;16599;47.078;15.536;2023-04-28T10:27:40;11.20;90.00
29687;DHT22;16599;47.078;15.536;2023-04-28T10:30:17;11.40;90.10
29687;DHT22;16599;47.078;15.536;2023-04-28T10:40:45;11.80;88.80
29687;DHT22;16599;47.078;15.536;2023-04-28T10:43:13;11.60;90.20
29687;DHT22;16599;47.078;15.536;2023-04-28T10:56:12;12.10;88.70
29687;DHT22;16599;47.078;15.536;2023-04-28T10:58:41;11.90;87.20
29687;DHT22;16599;47.078;15.536;2023-04-28T11:06:32;12.40;85.30
29687;DHT22;16599;47.078;15.536;2023-04-28T11:09:02;12.70;85.30
29687;DHT22;16599;47.078;15.536;2023-04-28T11:11:30;12.70;85.30
29687;DHT22;16599;47.078;15.536;2023-04-28T11:16:56;13.10;87.00
29687;DHT22;16599;47.078;15.536;2023-04-28T11:19:31;13.20;86.10
29687;DHT22;16599;47.078;15.536;2023-04-28T11:22:00;13.40;85.40
29687;DHT22;16599;47.078;15.536;2023-04-28T11:24:28;13.50;80.70
29687;DHT22;16599;47.078;15.536;2023-04-28T11:26:56;13.10;81.30
29687;DHT22;16599;47.078;15.536;2023-04-28T11:29:35;13.20;84.40
29687;DHT22;16599;47.078;15.536;2023-04-28T11:32:07;12.90;83.60
29687;DHT22;16599;47.078;15.536;2023-04-28T11:34:35;13.30;85.40
29687;DHT22;16599;47.078;15.536;2023-04-28T11:37:03;13.70;81.00
29687;DHT22;16599;47.078;15.536;2023-04-28T11:39:33;14.00;81.30
29687;DHT22;16599;47.078;15.536;2023-04-28T11:42:08;14.10;80.90
29687;DHT22;16599;47.078;15.536;2023-04-28T11:44:35;14.20;79.60
29687;DHT22;16599;47.078;15.536;2023-04-28T11:47:04;14.20;79.60
29687;DHT22;16599;47.078;15.536;2023-04-28T11:49:41;14.30;80.10
29687;DHT22;16599;47.078;15.536;2023-04-28T11:52:09;14.40;80.50
29687;DHT22;16599;47.078;15.536;2023-04-28T11:54:36;14.40;79.40
29687;DHT22;16599;47.078;15.536;2023-04-28T11:57:04;14.30;79.30
29687;DHT22;16599;47.078;15.536;2023-04-28T11:59:33;14.30;78.00
29687;DHT22;16599;47.078;15.536;2023-04-28T12:02:03;14.50;79.40
29687;DHT22;16599;47.078;15.536;2023-04-28T12:04:38;14.70;80.00
29687;DHT22;16599;47.078;15.536;2023-04-28T12:07:13;14.90;78.00
29687;DHT22;16599;47.078;15.536;2023-04-28T12:09:42;14.90;80.20
29687;DHT22;16599;47.078;15.536;2023-04-28T12:14:56;14.10;79.60
29687;DHT22;16599;47.078;15.536;2023-04-28T12:17:26;13.80;82.00
29687;DHT22;16599;47.078;15.536;2023-04-28T12:19:55;14.30;84.60
29687;DHT22;16599;47.078;15.536;2023-04-28T12:22:22;14.70;83.10
29687;DHT22;16599;47.078;15.536;2023-04-28T12:27:30;15.00;79.70
29687;DHT22;16599;47.078;15.536;2023-04-28T12:29:57;14.80;80.20
29687;DHT22;16599;47.078;15.536;2023-04-28T12:32:38;14.80;78.50
29687;DHT22;16599;47.078;15.536;2023-04-28T12:35:06;14.50;78.70
29687;DHT22;16599;47.078;15.536;2023-04-28T12:37:33;14.20;80.40
29687;DHT22;16599;47.078;15.536;2023-04-28T12:40:00;14.40;81.30
29687;DHT22;16599;47.078;15.536;2023-04-28T12:42:28;14.70;80.70
29687;DHT22;16599;47.078;15.536;2023-04-28T12:44:54;14.70;79.40
29687;DHT22;16599;47.078;15.536;2023-04-28T12:47:21;14.20;79.90
29687;DHT22;16599;47.078;15.536;2023-04-28T12:49:49;14.20;83.90
29687;DHT22;16599;47.078;15.536;2023-04-28T12:52:19;14.30;80.20
29687;DHT22;16599;47.078;15.536;2023-04-28T12:54:47;14.20;81.70
29687;DHT22;16599;47.078;15.536;2023-04-28T12:57:15;14.30;85.30
29687;DHT22;16599;47.078;15.536;2023-04-28T12:59:43;14.40;81.00
29687;DHT22;16599;47.078;15.536;2023-04-28T13:02:10;14.40;81.20
29687;DHT22;16599;47.078;15.536;2023-04-28T13:04:37;14.50;80.20
29687;DHT22;16599;47.078;15.536;2023-04-28T13:07:04;14.50;80.50
29687;DHT22;16599;47.078;15.536;2023-04-28T13:09:32;14.40;81.90
29687;DHT22;16599;47.078;15.536;2023-04-28T13:12:00;14.20;81.30
29687;DHT22;16599;47.078;15.536;2023-04-28T13:14:29;14.30;83.30
29687;DHT22;16599;47.078;15.536;2023-04-28T13:16:56;14.50;83.10
29687;DHT22;16599;47.078;15.536;2023-04-28T13:19:23;14.40;81.20
29687;DHT22;16599;47.078;15.536;2023-04-28T13:21:50;14.50;83.90
29687;DHT22;16599;47.078;15.536;2023-04-28T13:24:17;14.40;81.60
29687;DHT22;16599;47.078;15.536;2023-04-28T13:26:44;14.40;82.60
29687;DHT22;16599;47.078;15.536;2023-04-28T13:29:11;14.40;82.10
29687;DHT22;16599;47.078;15.536;2023-04-28T13:31:38;14.50;81.90
29687;DHT22;16599;47.078;15.536;2023-04-28T13:34:05;14.30;82.20
29687;DHT22;16599;47.078;15.536;2023-04-28T13:36:33;14.00;84.80
29687;DHT22;16599;47.078;15.536;2023-04-28T13:39:00;14.10;84.00
29687;DHT22;16599;47.078;15.536;2023-04-28T13:41:28;13.90;81.70
29687;DHT22;16599;47.078;15.536;2023-04-28T13:43:55;13.60;82.50
29687;DHT22;16599;47.078;15.536;2023-04-28T13:46:21;13.60;83.60
29687;DHT22;16599;47.078;15.536;2023-04-28T13:48:48;13.70;84.70
29687;DHT22;16599;47.078;15.536;2023-04-28T13:51:16;13.80;84.00
29687;DHT22;16599;47.078;15.536;2023-04-28T13:53:43;13.80;82.50
29687;DHT22;16599;47.078;15.536;2023-04-28T13:56:10;13.90;83.10
29687;DHT22;16599;47.078;15.536;2023-04-28T13:58:37;14.10;83.10
29687;DHT22;16599;47.078;15.536;2023-04-28T14:01:03;14.20;83.20
29687;DHT22;16599;47.078;15.536;2023-04-28T14:03:30;14.20;84.30
29687;DHT22;16599;47.078;15.536;2023-04-28T14:05:58;14.40;84.40
29687;DHT22;16599;47.078;15.536;2023-04-28T14:08:25;14.40;81.30
29687;DHT22;16599;47.078;15.536;2023-04-28T14:10:53;14.40;81.30
29687;DHT22;16599;47.078;15.536;2023-04-28T14:13:20;14.40;82.20
29687;DHT22;16599;47.078;15.536;2023-04-28T14:15:47;14.30;83.40
29687;DHT22;16599;47.078;15.536;2023-04-28T14:18:25;14.40;83.40
29687;DHT22;16599;47.078;15.536;2023-04-28T14:20:52;14.40;84.30
29687;DHT22;16599;47.078;15.536;2023-04-28T14:23:22;14.40;85.80
29687;DHT22;16599;47.078;15.536;2023-04-28T14:25:50;14.30;86.10
29687;DHT22;16599;47.078;15.536;2023-04-28T14:28:21;14.20;85.90
29687;DHT22;16599;47.078;15.536;2023-04-28T14:30:48;14.20;88.20
29687;DHT22;16599;47.078;15.536;2023-04-28T14:33:15;14.10;88.00
29687;DHT22;16599;47.078;15.536;2023-04-28T14:35:42;14.10;90.00
29687;DHT22;16599;47.078;15.536;2023-04-28T14:38:09;14.10;87.00
29687;DHT22;16599;47.078;15.536;2023-04-28T14:40:36;14.00;88.70
29687;DHT22;16599;47.078;15.536;2023-04-28T14:43:03;13.80;87.90
29687;DHT22;16599;47.078;15.536;2023-04-28T14:45:30;13.40;89.00
29687;DHT22;16599;47.078;15.536;2023-04-28T14:47:57;13.40;90.30
29687;DHT22;16599;47.078;15.536;2023-04-28T14:50:24;13.40;90.00
29687;DHT22;16599;47.078;15.536;2023-04-28T14:52:51;13.50;90.60
29687;DHT22;16599;47.078;15.536;2023-04-28T14:55:17;13.50;90.60
29687;DHT22;16599;47.078;15.536;2023-04-28T14:57:44;13.40;92.10
29687;DHT22;16599;47.078;15.536;2023-04-28T15:00:12;13.30;91.20
29687;DHT22;16599;47.078;15.536;2023-04-28T15:02:39;13.20;91.00
29687;DHT22;16599;47.078;15.536;2023-04-28T15:05:07;13.30;94.30
29687;DHT22;16599;47.078;15.536;2023-04-28T15:07:34;13.30;92.80
29687;DHT22;16599;47.078;15.536;2023-04-28T15:10:01;13.40;93.50
29687;DHT22;16599;47.078;15.536;2023-04-28T15:12:28;13.40;94.50
29687;DHT22;16599;47.078;15.536;2023-04-28T15:14:58;13.30;94.40
29687;DHT22;16599;47.078;15.536;2023-04-28T15:17:25;13.30;94.50
29687;DHT22;16599;47.078;15.536;2023-04-28T15:19:52;13.30;94.80
29687;DHT22;16599;47.078;15.536;2023-04-28T15:22:18;13.20;93.60
29687;DHT22;16599;47.078;15.536;2023-04-28T15:24:45;13.20;94.00
29687;DHT22;16599;47.078;15.536;2023-04-28T15:27:12;13.30;94.00
29687;DHT22;16599;47.078;15.536;2023-04-28T15:29:39;13.30;94.30
29687;DHT22;16599;47.078;15.536;2023-04-28T15:32:06;13.40;94.80
29687;DHT22;16599;47.078;15.536;2023-04-28T15:34:33;13.30;95.10
29687;DHT22;16599;47.078;15.536;2023-04-28T15:37:02;13.20;94.30
29687;DHT22;16599;47.078;15.536;2023-04-28T15:39:30;13.10;94.80
29687;DHT22;16599;47.078;15.536;2023-04-28T15:41:58;13.10;95.60
29687;DHT22;16599;47.078;15.536;2023-04-28T15:44:25;13.00;96.00
29687;DHT22;16599;47.078;15.536;2023-04-28T15:46:55;12.70;94.60
29687;DHT22;16599;47.078;15.536;2023-04-28T15:49:22;12.80;95.90
29687;DHT22;16599;47.078;15.536;2023-04-28T15:51:49;12.80;96.50
29687;DHT22;16599;47.078;15.536;2023-04-28T15:54:16;12.70;98.00
29687;DHT22;16599;47.078;15.536;2023-04-28T15:56:43;12.60;99.10
29687;DHT22;16599;47.078;15.536;2023-04-28T15:59:09;12.40;99.90
29687;DHT22;16599;47.078;15.536;2023-04-28T16:01:40;12.30;99.00
29687;DHT22;16599;47.078;15.536;2023-04-28T16:04:08;12.20;98.50
29687;DHT22;16599;47.078;15.536;2023-04-28T16:06:35;12.20;98.30